LBT844 DTTA-EGKK
Flight info
| Callsign | LBT844 |
|---|---|
| Flight time | N/A |
| Altitude | 38000 |
| Route | TOBIB3C TOBIB UA725 OSMAR DCT PIRIX DCT INDUM DCT UPDUT DCT CORSI DCT OMEDA DCT MERLU DCT PIGOS DCT BARSO DCT OKTET DCT GIPNO DCT BULOL DCT IDAVO DCT BAGBI DCT SIZZA DCT LAULY DCT BRY DCT CLM DCT KOPOR DCT KESAX DCT KUNAV |
| Aircraft | A20N/M-SDE2E3FGHIRWXY/LB1 |
Departure
| Time | 2026-05-06 06:40 |
|---|---|
| Airport | Tunis Carthage International Airport (DTTA) |
Arrival
| Time | N/A |
|---|---|
| Airport | London Gatwick Airport (EGKK) |
| Time | Latitude | Longitude | Altitude | Speed | Heading |
|---|---|---|---|---|---|
| 2026-05-06 06:25 | 36.84325 | 10.21857 | 33 ft | 0 kts | 282° |
| 2026-05-06 06:29 | 36.84322 | 10.21873 | 33 ft | 4 kts | 282° |
| 2026-05-06 06:29 | 36.84317 | 10.21902 | 33 ft | 2 kts | 282° |
| 2026-05-06 06:29 | 36.84308 | 10.21930 | 33 ft | 4 kts | 319° |
| 2026-05-06 06:30 | 36.84286 | 10.21940 | 33 ft | 4 kts | 6° |
| 2026-05-06 06:30 | 36.84273 | 10.21938 | 33 ft | 1 kts | 12° |
| 2026-05-06 06:32 | 36.84314 | 10.21949 | 33 ft | 12 kts | 12° |
| 2026-05-06 06:33 | 36.84427 | 10.21991 | 32 ft | 21 kts | 31° |
| 2026-05-06 06:33 | 36.84499 | 10.22114 | 33 ft | 12 kts | 95° |
| 2026-05-06 06:33 | 36.84500 | 10.22216 | 33 ft | 13 kts | 88° |
| 2026-05-06 06:33 | 36.84575 | 10.22279 | 33 ft | 17 kts | 9° |
| 2026-05-06 06:34 | 36.84715 | 10.22316 | 33 ft | 24 kts | 13° |
| 2026-05-06 06:34 | 36.84892 | 10.22368 | 34 ft | 26 kts | 13° |
| 2026-05-06 06:34 | 36.85023 | 10.22315 | 34 ft | 20 kts | 293° |
| 2026-05-06 06:34 | 36.85077 | 10.22156 | 32 ft | 20 kts | 293° |
| 2026-05-06 06:35 | 36.85132 | 10.21998 | 33 ft | 20 kts | 293° |
| 2026-05-06 06:35 | 36.85186 | 10.21839 | 33 ft | 19 kts | 293° |
| 2026-05-06 06:35 | 36.85194 | 10.21817 | 33 ft | 0 kts | 293° |
| 2026-05-06 06:38 | 36.85202 | 10.21795 | 33 ft | 10 kts | 293° |
| 2026-05-06 06:39 | 36.85244 | 10.21724 | 33 ft | 9 kts | 338° |
| 2026-05-06 06:39 | 36.85322 | 10.21738 | 33 ft | 18 kts | 22° |
| 2026-05-06 06:39 | 36.85392 | 10.21869 | 35 ft | 24 kts | 105° |
| 2026-05-06 06:39 | 36.85280 | 10.22211 | 35 ft | 73 kts | 112° |
| 2026-05-06 06:40 | 36.84999 | 10.23051 | 33 ft | 136 kts | 112° |
| 2026-05-06 06:40 | 36.84575 | 10.24327 | 153 ft | 174 kts | 113° |
| 2026-05-06 06:40 | 36.84086 | 10.25758 | 694 ft | 176 kts | 112° |
| 2026-05-06 06:40 | 36.83633 | 10.27126 | 1558 ft | 170 kts | 112° |
| 2026-05-06 06:41 | 36.83154 | 10.28575 | 1981 ft | 190 kts | 112° |
| 2026-05-06 06:41 | 36.82468 | 10.30028 | 2535 ft | 200 kts | 136° |
| 2026-05-06 06:41 | 36.81205 | 10.30791 | 3084 ft | 210 kts | 172° |
| 2026-05-06 06:41 | 36.79756 | 10.30481 | 3629 ft | 218 kts | 206° |
| 2026-05-06 06:42 | 36.78673 | 10.29163 | 4243 ft | 224 kts | 240° |
| 2026-05-06 06:42 | 36.78343 | 10.27270 | 4856 ft | 229 kts | 273° |
| 2026-05-06 06:42 | 36.78898 | 10.25413 | 5452 ft | 234 kts | 306° |
| 2026-05-06 06:42 | 36.80179 | 10.24182 | 6026 ft | 237 kts | 338° |
| 2026-05-06 06:43 | 36.81808 | 10.23965 | 6586 ft | 239 kts | 10° |
| 2026-05-06 06:43 | 36.83296 | 10.24838 | 7130 ft | 240 kts | 42° |
| 2026-05-06 06:43 | 36.84226 | 10.26538 | 7681 ft | 239 kts | 67° |
| 2026-05-06 06:43 | 36.85208 | 10.28217 | 8201 ft | 245 kts | 40° |
| 2026-05-06 06:44 | 36.86758 | 10.29087 | 8719 ft | 249 kts | 9° |
| 2026-05-06 06:44 | 36.88468 | 10.28853 | 9220 ft | 251 kts | 338° |
| 2026-05-06 06:44 | 36.90079 | 10.27907 | 9577 ft | 264 kts | 339° |
| 2026-05-06 06:44 | 36.91891 | 10.27206 | 9837 ft | 284 kts | 341° |
| 2026-05-06 06:45 | 36.93847 | 10.26443 | 10183 ft | 304 kts | 340° |
| 2026-05-06 06:45 | 36.95926 | 10.25592 | 10483 ft | 325 kts | 339° |
| 2026-05-06 06:45 | 36.98138 | 10.24650 | 10767 ft | 346 kts | 338° |
| 2026-05-06 06:45 | 37.00476 | 10.23633 | 11044 ft | 365 kts | 338° |
| 2026-05-06 06:46 | 37.02932 | 10.22553 | 11308 ft | 382 kts | 337° |
| 2026-05-06 06:46 | 37.05492 | 10.21422 | 11579 ft | 396 kts | 337° |
| 2026-05-06 06:46 | 37.08119 | 10.20258 | 12043 ft | 403 kts | 336° |
| 2026-05-06 06:46 | 37.10738 | 10.19096 | 12648 ft | 407 kts | 336° |
| 2026-05-06 06:47 | 37.13413 | 10.17907 | 13313 ft | 410 kts | 336° |
| 2026-05-06 06:47 | 37.16111 | 10.16705 | 13982 ft | 413 kts | 336° |
| 2026-05-06 06:47 | 37.18828 | 10.15494 | 14660 ft | 416 kts | 336° |
| 2026-05-06 06:47 | 37.21575 | 10.14268 | 15295 ft | 419 kts | 336° |
| 2026-05-06 06:48 | 37.24335 | 10.13036 | 15903 ft | 422 kts | 336° |
| 2026-05-06 06:48 | 37.27116 | 10.11793 | 16532 ft | 425 kts | 335° |
| 2026-05-06 06:48 | 37.29913 | 10.10541 | 17109 ft | 428 kts | 335° |
| 2026-05-06 06:48 | 37.32731 | 10.09280 | 17667 ft | 432 kts | 335° |
| 2026-05-06 06:49 | 37.35568 | 10.08008 | 18213 ft | 435 kts | 335° |
| 2026-05-06 06:49 | 37.38431 | 10.06725 | 18710 ft | 439 kts | 336° |
| 2026-05-06 06:49 | 37.41361 | 10.05545 | 19199 ft | 444 kts | 339° |
| 2026-05-06 06:49 | 37.44358 | 10.04500 | 19688 ft | 449 kts | 341° |
| 2026-05-06 06:50 | 37.47364 | 10.03538 | 20145 ft | 454 kts | 341° |
| 2026-05-06 06:50 | 37.50444 | 10.02589 | 20618 ft | 458 kts | 342° |
| 2026-05-06 06:50 | 37.53549 | 10.01641 | 21068 ft | 461 kts | 342° |
| 2026-05-06 06:50 | 37.56683 | 10.00677 | 21517 ft | 465 kts | 342° |
| 2026-05-06 06:51 | 37.59834 | 9.99697 | 21965 ft | 468 kts | 342° |
| 2026-05-06 06:51 | 37.63014 | 9.98698 | 22399 ft | 472 kts | 342° |
| 2026-05-06 06:51 | 37.66214 | 9.97685 | 22808 ft | 476 kts | 342° |
| 2026-05-06 06:51 | 37.69433 | 9.96661 | 23220 ft | 479 kts | 342° |
| 2026-05-06 06:52 | 37.72673 | 9.95628 | 23612 ft | 482 kts | 342° |
| 2026-05-06 06:52 | 37.74835 | 9.94937 | 23869 ft | 484 kts | 342° |
| 2026-05-06 06:52 | 37.79225 | 9.93538 | 24389 ft | 488 kts | 342° |
| 2026-05-06 06:52 | 37.82526 | 9.92486 | 24780 ft | 491 kts | 342° |
| 2026-05-06 06:53 | 37.85832 | 9.91434 | 25309 ft | 489 kts | 342° |
| 2026-05-06 06:53 | 37.88065 | 9.90724 | 25728 ft | 487 kts | 342° |
| 2026-05-06 06:53 | 37.91346 | 9.89680 | 26314 ft | 484 kts | 342° |
| 2026-05-06 06:53 | 37.94559 | 9.88656 | 26897 ft | 481 kts | 342° |
| 2026-05-06 06:54 | 37.97801 | 9.87621 | 27442 ft | 479 kts | 342° |
| 2026-05-06 06:54 | 38.01023 | 9.86591 | 27976 ft | 477 kts | 342° |
| 2026-05-06 06:54 | 38.04234 | 9.85562 | 28478 ft | 475 kts | 342° |
| 2026-05-06 06:54 | 38.07469 | 9.84524 | 28997 ft | 473 kts | 342° |
| 2026-05-06 06:55 | 38.10620 | 9.83511 | 29486 ft | 470 kts | 342° |
| 2026-05-06 06:55 | 38.13788 | 9.82493 | 29947 ft | 469 kts | 342° |
| 2026-05-06 06:55 | 38.16950 | 9.81476 | 30401 ft | 468 kts | 342° |
| 2026-05-06 06:55 | 38.19065 | 9.80795 | 30685 ft | 467 kts | 342° |
| 2026-05-06 06:56 | 38.22213 | 9.79782 | 31097 ft | 466 kts | 342° |
| 2026-05-06 06:56 | 38.25349 | 9.78771 | 31504 ft | 464 kts | 342° |
| 2026-05-06 06:56 | 38.28476 | 9.77766 | 31907 ft | 463 kts | 342° |
| 2026-05-06 06:56 | 38.31603 | 9.76763 | 32257 ft | 463 kts | 342° |
| 2026-05-06 06:57 | 38.34725 | 9.75762 | 32609 ft | 462 kts | 342° |
| 2026-05-06 06:57 | 38.37835 | 9.74765 | 32954 ft | 461 kts | 342° |
| 2026-05-06 06:57 | 38.40950 | 9.73765 | 33295 ft | 460 kts | 342° |
| 2026-05-06 06:57 | 38.44051 | 9.72768 | 33633 ft | 459 kts | 342° |
| 2026-05-06 06:58 | 38.47148 | 9.71772 | 33969 ft | 458 kts | 341° |
| 2026-05-06 06:58 | 38.50231 | 9.70778 | 34281 ft | 457 kts | 341° |
| 2026-05-06 06:58 | 38.53313 | 9.69784 | 34577 ft | 456 kts | 341° |
| 2026-05-06 06:58 | 38.56389 | 9.68792 | 34839 ft | 456 kts | 341° |
| 2026-05-06 06:59 | 38.59469 | 9.67797 | 35096 ft | 456 kts | 341° |
| 2026-05-06 06:59 | 38.62545 | 9.66802 | 35340 ft | 456 kts | 341° |
| 2026-05-06 06:59 | 38.65620 | 9.65807 | 35582 ft | 456 kts | 341° |
| 2026-05-06 06:59 | 38.68693 | 9.64812 | 35817 ft | 455 kts | 341° |
| 2026-05-06 07:00 | 38.71763 | 9.63816 | 36047 ft | 455 kts | 341° |
| 2026-05-06 07:00 | 38.74834 | 9.62820 | 36262 ft | 455 kts | 341° |
| 2026-05-06 07:00 | 38.77905 | 9.61821 | 36443 ft | 455 kts | 341° |
| 2026-05-06 07:00 | 38.80981 | 9.60820 | 36605 ft | 456 kts | 341° |
| 2026-05-06 07:01 | 38.84058 | 9.59819 | 36802 ft | 456 kts | 341° |
| 2026-05-06 07:01 | 38.87130 | 9.58819 | 37053 ft | 455 kts | 340° |
| 2026-05-06 07:01 | 38.90191 | 9.57821 | 37296 ft | 453 kts | 340° |
| 2026-05-06 07:01 | 38.93237 | 9.56808 | 37573 ft | 450 kts | 340° |
| 2026-05-06 07:02 | 38.96259 | 9.55786 | 37815 ft | 448 kts | 340° |
| 2026-05-06 07:02 | 38.99279 | 9.54757 | 37940 ft | 449 kts | 340° |
| 2026-05-06 07:02 | 39.02301 | 9.53723 | 37968 ft | 450 kts | 340° |
| 2026-05-06 07:03 | 39.08311 | 9.51666 | 37961 ft | 448 kts | 340° |
| 2026-05-06 07:03 | 39.14337 | 9.49607 | 37962 ft | 448 kts | 340° |
| 2026-05-06 07:04 | 39.20383 | 9.47540 | 37969 ft | 449 kts | 340° |
| 2026-05-06 07:04 | 39.26425 | 9.45472 | 37957 ft | 449 kts | 340° |
| 2026-05-06 07:05 | 39.32462 | 9.43402 | 37958 ft | 449 kts | 340° |
| 2026-05-06 07:05 | 39.38501 | 9.41328 | 37956 ft | 449 kts | 340° |
| 2026-05-06 07:06 | 39.44540 | 9.39249 | 37960 ft | 449 kts | 339° |
| 2026-05-06 07:06 | 39.50533 | 9.37183 | 37955 ft | 449 kts | 340° |
| 2026-05-06 07:07 | 39.56576 | 9.35093 | 37967 ft | 449 kts | 339° |
| 2026-05-06 07:07 | 39.62612 | 9.33005 | 37966 ft | 449 kts | 339° |
| 2026-05-06 07:08 | 39.68644 | 9.30915 | 37941 ft | 449 kts | 339° |
| 2026-05-06 07:08 | 39.74681 | 9.28819 | 37934 ft | 449 kts | 339° |
| 2026-05-06 07:09 | 39.80718 | 9.26719 | 37934 ft | 449 kts | 339° |
| 2026-05-06 07:09 | 39.86795 | 9.24601 | 37935 ft | 449 kts | 339° |
| 2026-05-06 07:10 | 39.92788 | 9.22508 | 37934 ft | 449 kts | 339° |
| 2026-05-06 07:10 | 39.98814 | 9.20400 | 37935 ft | 449 kts | 339° |
| 2026-05-06 07:11 | 40.04851 | 9.18285 | 37933 ft | 449 kts | 339° |
| 2026-05-06 07:11 | 40.10882 | 9.16167 | 37933 ft | 450 kts | 339° |
| 2026-05-06 07:12 | 40.16928 | 9.14040 | 37937 ft | 450 kts | 339° |
| 2026-05-06 07:12 | 40.22966 | 9.11911 | 37935 ft | 450 kts | 339° |
| 2026-05-06 07:13 | 40.29007 | 9.09777 | 37931 ft | 450 kts | 339° |
| 2026-05-06 07:13 | 40.35091 | 9.07625 | 37936 ft | 450 kts | 339° |
| 2026-05-06 07:14 | 40.41100 | 9.05498 | 37940 ft | 450 kts | 338° |
| 2026-05-06 07:14 | 40.47137 | 9.03355 | 37943 ft | 450 kts | 338° |
| 2026-05-06 07:15 | 40.53185 | 9.01203 | 37944 ft | 450 kts | 338° |
| 2026-05-06 07:15 | 40.59226 | 8.99051 | 37943 ft | 450 kts | 338° |
| 2026-05-06 07:16 | 40.65275 | 8.96890 | 37942 ft | 450 kts | 338° |
| 2026-05-06 07:16 | 40.71315 | 8.94728 | 37936 ft | 450 kts | 338° |
| 2026-05-06 07:17 | 40.77356 | 8.92564 | 37932 ft | 450 kts | 338° |
| 2026-05-06 07:17 | 40.83436 | 8.90382 | 37935 ft | 450 kts | 338° |
| 2026-05-06 07:18 | 40.89445 | 8.88219 | 37937 ft | 451 kts | 338° |
| 2026-05-06 07:18 | 40.95501 | 8.86056 | 37933 ft | 453 kts | 340° |
| 2026-05-06 07:19 | 41.01841 | 8.85121 | 37935 ft | 462 kts | 351° |
| 2026-05-06 07:19 | 41.08292 | 8.84930 | 37934 ft | 465 kts | 353° |
| 2026-05-06 07:20 | 41.14762 | 8.84887 | 37935 ft | 465 kts | 353° |
| 2026-05-06 07:20 | 41.21289 | 8.84843 | 37934 ft | 466 kts | 352° |
| 2026-05-06 07:21 | 41.27571 | 8.83605 | 37933 ft | 452 kts | 338° |
| 2026-05-06 07:21 | 41.33576 | 8.81207 | 37935 ft | 449 kts | 334° |
| 2026-05-06 07:22 | 41.39503 | 8.78559 | 37932 ft | 449 kts | 334° |
| 2026-05-06 07:22 | 41.45408 | 8.75872 | 37936 ft | 449 kts | 334° |
| 2026-05-06 07:23 | 41.51343 | 8.73194 | 37932 ft | 450 kts | 334° |
| 2026-05-06 07:23 | 41.56282 | 8.70977 | 37931 ft | 450 kts | 334° |
| 2026-05-06 07:24 | 41.63226 | 8.67863 | 37935 ft | 450 kts | 334° |
| 2026-05-06 07:24 | 41.69139 | 8.65205 | 37934 ft | 451 kts | 334° |
| 2026-05-06 07:25 | 41.75080 | 8.62527 | 37934 ft | 451 kts | 333° |
| 2026-05-06 07:25 | 41.80070 | 8.60274 | 37935 ft | 451 kts | 333° |
| 2026-05-06 07:26 | 41.86999 | 8.57141 | 37933 ft | 452 kts | 333° |
| 2026-05-06 07:26 | 41.92958 | 8.54440 | 37933 ft | 453 kts | 333° |
| 2026-05-06 07:27 | 41.97962 | 8.52167 | 37935 ft | 453 kts | 333° |
| 2026-05-06 07:27 | 42.03943 | 8.49447 | 37935 ft | 453 kts | 333° |
| 2026-05-06 07:28 | 42.10899 | 8.46275 | 37934 ft | 455 kts | 333° |
| 2026-05-06 07:28 | 42.18918 | 8.42612 | 37927 ft | 455 kts | 333° |
| 2026-05-06 07:29 | 42.24918 | 8.39864 | 37924 ft | 455 kts | 333° |
| 2026-05-06 07:29 | 42.30910 | 8.37103 | 37924 ft | 453 kts | 331° |
| 2026-05-06 07:30 | 42.36517 | 8.33483 | 37921 ft | 444 kts | 323° |
| 2026-05-06 07:30 | 42.41943 | 8.29497 | 37916 ft | 443 kts | 322° |
| 2026-05-06 07:31 | 42.47335 | 8.25426 | 37916 ft | 443 kts | 322° |
| 2026-05-06 07:31 | 42.52759 | 8.21324 | 37915 ft | 443 kts | 322° |
| 2026-05-06 07:32 | 42.58152 | 8.17256 | 37906 ft | 444 kts | 322° |
| 2026-05-06 07:32 | 42.63529 | 8.13201 | 37906 ft | 444 kts | 322° |
| 2026-05-06 07:33 | 42.68967 | 8.09092 | 37906 ft | 445 kts | 322° |
| 2026-05-06 07:33 | 42.74373 | 8.04998 | 37906 ft | 445 kts | 322° |
| 2026-05-06 07:34 | 42.79789 | 8.00888 | 37900 ft | 445 kts | 322° |
| 2026-05-06 07:34 | 42.85202 | 7.96773 | 37899 ft | 446 kts | 322° |
| 2026-05-06 07:35 | 42.90633 | 7.92633 | 37895 ft | 448 kts | 322° |
| 2026-05-06 07:35 | 42.96069 | 7.88483 | 37898 ft | 448 kts | 322° |
| 2026-05-06 07:36 | 43.01517 | 7.84315 | 37900 ft | 448 kts | 322° |
| 2026-05-06 07:36 | 43.06954 | 7.80148 | 37898 ft | 448 kts | 322° |
| 2026-05-06 07:37 | 43.12404 | 7.75953 | 37889 ft | 449 kts | 322° |
| 2026-05-06 07:37 | 43.17845 | 7.71748 | 37891 ft | 449 kts | 322° |
| 2026-05-06 07:38 | 43.23286 | 7.67534 | 37887 ft | 449 kts | 322° |
| 2026-05-06 07:38 | 43.28732 | 7.63310 | 37887 ft | 449 kts | 322° |
| 2026-05-06 07:39 | 43.34177 | 7.59076 | 37889 ft | 450 kts | 322° |
| 2026-05-06 07:39 | 43.39641 | 7.54817 | 37884 ft | 451 kts | 322° |
| 2026-05-06 07:40 | 43.45059 | 7.50589 | 37886 ft | 451 kts | 322° |
| 2026-05-06 07:40 | 43.50515 | 7.46321 | 37890 ft | 451 kts | 322° |
| 2026-05-06 07:41 | 43.55971 | 7.42045 | 37884 ft | 451 kts | 322° |
| 2026-05-06 07:41 | 43.61446 | 7.37744 | 37876 ft | 451 kts | 322° |
| 2026-05-06 07:42 | 43.66710 | 7.33202 | 37887 ft | 447 kts | 319° |
| 2026-05-06 07:42 | 43.71870 | 7.28416 | 37890 ft | 447 kts | 318° |
| 2026-05-06 07:43 | 43.77022 | 7.23616 | 37891 ft | 447 kts | 318° |
| 2026-05-06 07:43 | 43.82197 | 7.18834 | 37876 ft | 447 kts | 318° |
| 2026-05-06 07:44 | 43.87372 | 7.14065 | 37865 ft | 447 kts | 318° |
| 2026-05-06 07:44 | 43.92583 | 7.09259 | 37861 ft | 447 kts | 318° |
| 2026-05-06 07:45 | 43.97758 | 7.04472 | 37865 ft | 447 kts | 318° |
| 2026-05-06 07:45 | 44.02941 | 6.99670 | 37873 ft | 448 kts | 319° |
| 2026-05-06 07:46 | 44.08138 | 6.94842 | 37875 ft | 451 kts | 319° |
| 2026-05-06 07:46 | 44.13357 | 6.89985 | 37881 ft | 451 kts | 319° |
| 2026-05-06 07:47 | 44.18579 | 6.85114 | 37883 ft | 451 kts | 319° |
| 2026-05-06 07:47 | 44.23799 | 6.80231 | 37883 ft | 452 kts | 319° |
| 2026-05-06 07:48 | 44.29047 | 6.75307 | 37866 ft | 452 kts | 319° |
| 2026-05-06 07:48 | 44.34216 | 6.70448 | 37878 ft | 452 kts | 319° |
| 2026-05-06 07:49 | 44.39444 | 6.65524 | 37882 ft | 451 kts | 319° |
| 2026-05-06 07:49 | 44.44656 | 6.60602 | 37866 ft | 452 kts | 319° |
| 2026-05-06 07:50 | 44.49865 | 6.55674 | 37882 ft | 452 kts | 319° |
| 2026-05-06 07:50 | 44.55075 | 6.50738 | 37877 ft | 452 kts | 319° |
| 2026-05-06 07:51 | 44.60287 | 6.45789 | 37867 ft | 453 kts | 319° |
| 2026-05-06 07:51 | 44.65507 | 6.40822 | 37867 ft | 453 kts | 319° |
| 2026-05-06 07:52 | 44.70727 | 6.35843 | 37866 ft | 453 kts | 319° |
| 2026-05-06 07:52 | 44.75944 | 6.30858 | 37876 ft | 454 kts | 319° |
| 2026-05-06 07:53 | 44.81163 | 6.25858 | 37867 ft | 454 kts | 319° |
| 2026-05-06 07:53 | 44.86384 | 6.20846 | 37867 ft | 454 kts | 319° |
| 2026-05-06 07:54 | 44.90717 | 6.16678 | 37880 ft | 453 kts | 319° |
| 2026-05-06 07:54 | 44.96811 | 6.10802 | 37886 ft | 454 kts | 320° |
| 2026-05-06 07:55 | 45.02036 | 6.05752 | 37893 ft | 455 kts | 320° |
| 2026-05-06 07:55 | 45.07258 | 6.00689 | 37882 ft | 455 kts | 320° |
| 2026-05-06 07:56 | 45.11641 | 5.96435 | 37886 ft | 456 kts | 320° |
| 2026-05-06 07:56 | 45.17763 | 5.90481 | 37884 ft | 457 kts | 320° |
| 2026-05-06 07:57 | 45.23004 | 5.85370 | 37890 ft | 457 kts | 321° |
| 2026-05-06 07:57 | 45.28241 | 5.80252 | 37889 ft | 457 kts | 321° |
| 2026-05-06 07:58 | 45.32594 | 5.75988 | 37887 ft | 458 kts | 321° |
| 2026-05-06 07:58 | 45.38724 | 5.69970 | 37891 ft | 458 kts | 321° |
| 2026-05-06 07:59 | 45.43933 | 5.64843 | 37888 ft | 458 kts | 321° |
| 2026-05-06 07:59 | 45.49171 | 5.59675 | 37888 ft | 458 kts | 321° |
| 2026-05-06 08:00 | 45.53567 | 5.55329 | 37884 ft | 458 kts | 321° |
| 2026-05-06 08:00 | 45.58864 | 5.50258 | 37886 ft | 460 kts | 323° |
| 2026-05-06 08:01 | 45.64299 | 5.45416 | 37890 ft | 460 kts | 324° |
| 2026-05-06 08:01 | 45.69750 | 5.40606 | 37896 ft | 461 kts | 324° |
| 2026-05-06 08:02 | 45.75190 | 5.35759 | 37898 ft | 460 kts | 324° |
| 2026-05-06 08:02 | 45.80588 | 5.30913 | 37906 ft | 460 kts | 323° |
| 2026-05-06 08:03 | 45.86043 | 5.25996 | 37906 ft | 460 kts | 323° |
| 2026-05-06 08:03 | 45.91466 | 5.21097 | 37906 ft | 460 kts | 323° |
| 2026-05-06 08:04 | 45.96884 | 5.16191 | 37907 ft | 460 kts | 323° |
| 2026-05-06 08:04 | 46.02312 | 5.11266 | 37907 ft | 460 kts | 324° |
| 2026-05-06 08:05 | 46.08003 | 5.07053 | 37901 ft | 465 kts | 332° |
| 2026-05-06 08:05 | 46.13907 | 5.03218 | 37904 ft | 466 kts | 333° |
| 2026-05-06 08:06 | 46.19843 | 4.99458 | 37899 ft | 466 kts | 333° |
| 2026-05-06 08:06 | 46.25805 | 4.95674 | 37900 ft | 466 kts | 333° |
| 2026-05-06 08:07 | 46.31699 | 4.91907 | 37893 ft | 466 kts | 333° |
| 2026-05-06 08:07 | 46.37629 | 4.88100 | 37885 ft | 466 kts | 333° |
| 2026-05-06 08:08 | 46.43558 | 4.84283 | 37886 ft | 466 kts | 333° |
| 2026-05-06 08:08 | 46.49480 | 4.80460 | 37884 ft | 466 kts | 333° |
| 2026-05-06 08:09 | 46.55407 | 4.76627 | 37880 ft | 466 kts | 333° |
| 2026-05-06 08:09 | 46.61332 | 4.72787 | 37872 ft | 466 kts | 333° |
| 2026-05-06 08:10 | 46.67248 | 4.68943 | 37867 ft | 466 kts | 333° |
| 2026-05-06 08:10 | 46.73176 | 4.65082 | 37871 ft | 466 kts | 333° |
| 2026-05-06 08:11 | 46.79069 | 4.61232 | 37865 ft | 466 kts | 333° |
| 2026-05-06 08:11 | 46.84911 | 4.57110 | 37862 ft | 464 kts | 328° |
| 2026-05-06 08:12 | 46.90537 | 4.52541 | 37857 ft | 463 kts | 327° |
| 2026-05-06 08:12 | 46.96125 | 4.47854 | 37860 ft | 463 kts | 327° |
| 2026-05-06 08:13 | 47.01722 | 4.43129 | 37854 ft | 463 kts | 327° |
| 2026-05-06 08:13 | 47.07277 | 4.38439 | 37851 ft | 463 kts | 327° |
| 2026-05-06 08:14 | 47.12880 | 4.33706 | 37852 ft | 463 kts | 327° |
| 2026-05-06 08:14 | 47.18452 | 4.28989 | 37850 ft | 463 kts | 327° |
| 2026-05-06 08:15 | 47.24025 | 4.24260 | 37849 ft | 463 kts | 327° |
| 2026-05-06 08:15 | 47.29629 | 4.19493 | 37842 ft | 463 kts | 327° |
| 2026-05-06 08:16 | 47.35205 | 4.14736 | 37842 ft | 463 kts | 327° |
| 2026-05-06 08:16 | 47.40805 | 4.09947 | 37841 ft | 463 kts | 327° |
| 2026-05-06 08:17 | 47.46360 | 4.05186 | 37842 ft | 463 kts | 328° |
| 2026-05-06 08:17 | 47.51914 | 4.00414 | 37840 ft | 463 kts | 328° |
| 2026-05-06 08:18 | 47.57472 | 3.95627 | 37841 ft | 463 kts | 328° |
| 2026-05-06 08:18 | 47.63034 | 3.90823 | 37842 ft | 463 kts | 328° |
| 2026-05-06 08:19 | 47.68615 | 3.85992 | 37841 ft | 463 kts | 328° |
| 2026-05-06 08:19 | 47.74175 | 3.81169 | 37845 ft | 463 kts | 327° |
| 2026-05-06 08:20 | 47.79714 | 3.76349 | 37852 ft | 463 kts | 327° |
| 2026-05-06 08:20 | 47.85290 | 3.71486 | 37849 ft | 463 kts | 327° |
| 2026-05-06 08:21 | 47.90832 | 3.66641 | 37841 ft | 463 kts | 327° |
| 2026-05-06 08:21 | 47.96404 | 3.61756 | 37840 ft | 463 kts | 327° |
| 2026-05-06 08:22 | 48.01938 | 3.56893 | 37842 ft | 463 kts | 327° |
| 2026-05-06 08:22 | 48.07461 | 3.52027 | 37842 ft | 462 kts | 327° |
| 2026-05-06 08:23 | 48.13024 | 3.47115 | 37841 ft | 462 kts | 327° |
| 2026-05-06 08:23 | 48.18560 | 3.42213 | 37841 ft | 462 kts | 327° |
| 2026-05-06 08:24 | 48.24096 | 3.37299 | 37851 ft | 462 kts | 327° |
| 2026-05-06 08:24 | 48.29623 | 3.32378 | 37856 ft | 461 kts | 327° |
| 2026-05-06 08:25 | 48.35110 | 3.27482 | 37853 ft | 461 kts | 327° |
| 2026-05-06 08:25 | 48.40631 | 3.22544 | 37859 ft | 461 kts | 328° |
| 2026-05-06 08:26 | 48.46142 | 3.17603 | 37859 ft | 460 kts | 327° |
| 2026-05-06 08:26 | 48.51648 | 3.12651 | 37866 ft | 460 kts | 328° |
| 2026-05-06 08:27 | 48.57116 | 3.07723 | 37866 ft | 460 kts | 328° |
| 2026-05-06 08:27 | 48.62617 | 3.02753 | 37883 ft | 460 kts | 328° |
| 2026-05-06 08:28 | 48.68103 | 2.97781 | 37881 ft | 459 kts | 328° |
| 2026-05-06 08:28 | 48.73580 | 2.92808 | 37878 ft | 459 kts | 327° |
| 2026-05-06 08:29 | 48.79067 | 2.87809 | 37885 ft | 459 kts | 327° |
| 2026-05-06 08:29 | 48.84542 | 2.82809 | 37882 ft | 459 kts | 327° |
| 2026-05-06 08:30 | 48.89979 | 2.77833 | 37880 ft | 459 kts | 327° |
| 2026-05-06 08:30 | 48.95438 | 2.72823 | 37881 ft | 459 kts | 327° |
| 2026-05-06 08:31 | 49.00901 | 2.67797 | 37877 ft | 458 kts | 327° |
| 2026-05-06 08:31 | 49.06361 | 2.62761 | 37891 ft | 459 kts | 327° |
| 2026-05-06 08:32 | 49.11816 | 2.57716 | 37887 ft | 459 kts | 327° |
| 2026-05-06 08:32 | 49.17275 | 2.52654 | 37889 ft | 458 kts | 327° |
| 2026-05-06 08:33 | 49.22724 | 2.47588 | 37884 ft | 458 kts | 327° |
| 2026-05-06 08:33 | 49.28163 | 2.42518 | 37892 ft | 458 kts | 327° |
| 2026-05-06 08:34 | 49.36325 | 2.34884 | 37906 ft | 457 kts | 327° |
| 2026-05-06 08:35 | 49.41725 | 2.29817 | 37543 ft | 457 kts | 327° |
| 2026-05-06 08:35 | 49.44441 | 2.27263 | 36959 ft | 458 kts | 328° |
| 2026-05-06 08:35 | 49.47156 | 2.24708 | 36363 ft | 457 kts | 328° |
| 2026-05-06 08:35 | 49.49867 | 2.22153 | 35760 ft | 457 kts | 328° |
| 2026-05-06 08:36 | 49.52580 | 2.19592 | 35162 ft | 457 kts | 328° |
| 2026-05-06 08:36 | 49.55295 | 2.17025 | 34559 ft | 459 kts | 328° |
| 2026-05-06 08:36 | 49.58028 | 2.14438 | 33969 ft | 463 kts | 328° |
| 2026-05-06 08:36 | 49.60780 | 2.11830 | 33360 ft | 465 kts | 328° |
| 2026-05-06 08:37 | 49.63535 | 2.09217 | 32761 ft | 466 kts | 328° |
| 2026-05-06 08:37 | 49.66296 | 2.06594 | 32159 ft | 466 kts | 328° |
| 2026-05-06 08:37 | 49.69054 | 2.03970 | 31553 ft | 466 kts | 328° |
| 2026-05-06 08:37 | 49.71818 | 2.01337 | 30955 ft | 466 kts | 328° |
| 2026-05-06 08:38 | 49.74584 | 1.98698 | 30351 ft | 467 kts | 328° |
| 2026-05-06 08:38 | 49.77347 | 1.96058 | 29758 ft | 467 kts | 328° |
| 2026-05-06 08:38 | 49.80109 | 1.93416 | 29147 ft | 467 kts | 328° |
| 2026-05-06 08:38 | 49.82879 | 1.90761 | 28543 ft | 468 kts | 328° |
| 2026-05-06 08:39 | 49.85648 | 1.88106 | 27941 ft | 469 kts | 328° |
| 2026-05-06 08:39 | 49.88423 | 1.85441 | 27336 ft | 469 kts | 328° |
| 2026-05-06 08:39 | 49.91204 | 1.82766 | 26727 ft | 470 kts | 328° |
| 2026-05-06 08:39 | 49.93990 | 1.80082 | 26130 ft | 472 kts | 328° |
| 2026-05-06 08:40 | 49.96751 | 1.77419 | 25532 ft | 473 kts | 328° |
| 2026-05-06 08:40 | 49.99578 | 1.74688 | 24923 ft | 474 kts | 328° |
| 2026-05-06 08:40 | 50.02386 | 1.71973 | 24334 ft | 475 kts | 328° |
| 2026-05-06 08:40 | 50.05155 | 1.69285 | 23998 ft | 477 kts | 327° |
| 2026-05-06 08:41 | 50.07837 | 1.66133 | 23929 ft | 478 kts | 319° |
| 2026-05-06 08:41 | 50.10249 | 1.62689 | 23907 ft | 478 kts | 316° |
| 2026-05-06 08:41 | 50.12637 | 1.59100 | 23597 ft | 472 kts | 315° |
| 2026-05-06 08:41 | 50.14921 | 1.55577 | 23512 ft | 453 kts | 315° |